Holyhead, United Kingdom
Current Conditions -  °F | °C
As of 9:50 PM on Wednesday 28 Jan 2015 (Local Time) from EGOV Reporting Station
Broken Clouds Broken Clouds  
Wind Chill: -1°   Ceiling: 4500
Heat Index:   Visibility: 6mi
Dew Point: -1°   Wind: 31mph
Humidity: 65%   Direction: 270°W
Pressure: 29.41"   Gusts: 46mph
Location:  53.31°N, 4.63°W
Report Text: EGOV 282150Z 27027G40KT 9999 SCT027 BKN045 05/M01 Q0996 BLU
Loading
Personal Weather Stations






























Interactive Weather Map New forecast layout! Learn more

10-Day Weather Forecast

Advertisements
Track Severe Weather on mobile